createdAt,value
2019-04-21T00:01:16.524Z,10.80
2019-04-21T00:03:54.910Z,10.20
2019-04-21T00:06:43.730Z,10.23
2019-04-21T00:09:19.224Z,10.10
2019-04-21T00:11:49.630Z,10.77
2019-04-21T00:14:17.004Z,10.60
2019-04-21T00:16:44.116Z,10.70
2019-04-21T00:19:24.269Z,11.37
2019-04-21T00:22:01.690Z,10.63
2019-04-21T00:24:41.359Z,10.60
2019-04-21T00:27:18.593Z,10.27
2019-04-21T00:29:48.248Z,10.53
2019-04-21T00:32:17.662Z,11.03
2019-04-21T00:34:43.251Z,11.60
2019-04-21T00:37:22.439Z,11.40
2019-04-21T00:40:05.940Z,11.03
2019-04-21T00:42:34.434Z,12.43
2019-04-21T00:45:09.751Z,11.20
2019-04-21T00:47:49.795Z,11.10
2019-04-21T00:50:18.047Z,11.53
2019-04-21T00:53:04.737Z,10.83
2019-04-21T00:56:10.659Z,10.80
2019-04-21T00:58:38.995Z,11.00
2019-04-21T01:01:15.064Z,11.33
2019-04-21T01:03:52.984Z,10.47
2019-04-21T01:06:22.787Z,10.17
2019-04-21T01:08:53.208Z,10.07
2019-04-21T01:11:23.928Z,10.50
2019-04-21T01:14:01.026Z,10.57
2019-04-21T01:16:33.188Z,11.40
2019-04-21T01:19:06.302Z,10.30
2019-04-21T01:21:16.173Z,10.40
2019-04-21T01:23:48.656Z,10.80
2019-04-21T01:26:38.201Z,10.77
2019-04-21T01:29:13.264Z,10.60
2019-04-21T01:31:42.626Z,10.63
2019-04-21T01:34:20.550Z,10.50
2019-04-21T01:36:52.894Z,10.80
2019-04-21T01:39:27.416Z,10.90
2019-04-21T01:41:59.129Z,11.13
2019-04-21T01:44:39.111Z,10.83
2019-04-21T01:46:58.614Z,10.70
2019-04-21T01:49:29.548Z,10.57
2019-04-21T01:52:24.709Z,10.77
2019-04-21T01:55:08.100Z,11.23
2019-04-21T01:57:54.056Z,10.27
2019-04-21T02:00:41.124Z,11.00
2019-04-21T02:03:37.386Z,10.90
2019-04-21T02:05:54.485Z,10.53
2019-04-21T02:08:15.452Z,11.07
2019-04-21T02:11:00.597Z,10.70
2019-04-21T02:13:22.470Z,11.70
2019-04-21T02:16:00.874Z,12.13
2019-04-21T02:18:34.017Z,10.80
2019-04-21T02:20:52.896Z,10.20
2019-04-21T02:23:46.409Z,11.27
2019-04-21T02:26:17.076Z,11.70
2019-04-21T02:28:50.446Z,11.63
2019-04-21T02:31:28.660Z,11.27
2019-04-21T02:39:16.677Z,11.93
2019-04-21T02:41:57.340Z,10.53
2019-04-21T02:44:24.032Z,10.90
2019-04-21T02:46:46.309Z,11.87
2019-04-21T02:52:01.604Z,12.53
2019-04-21T02:54:48.378Z,11.83
2019-04-21T02:59:49.675Z,12.20
2019-04-21T03:02:39.008Z,12.60
2019-04-21T03:05:34.495Z,11.67
2019-04-21T03:10:39.258Z,12.03
2019-04-21T03:13:03.634Z,10.93
2019-04-21T03:18:24.305Z,11.67
2019-04-21T03:21:00.193Z,11.77
2019-04-21T03:23:21.026Z,11.50
2019-04-21T03:28:22.592Z,12.17
2019-04-21T03:38:37.528Z,12.10
2019-04-21T03:41:12.652Z,12.50
2019-04-21T03:46:15.948Z,13.57
2019-04-21T03:49:04.662Z,13.00
2019-04-21T03:51:23.143Z,12.50
2019-04-21T03:53:46.309Z,12.93
2019-04-21T03:56:46.967Z,13.13
2019-04-21T03:59:01.841Z,13.27
2019-04-21T04:01:50.996Z,13.57
2019-04-21T04:04:49.714Z,14.57
2019-04-21T04:07:42.534Z,14.70
2019-04-21T04:12:48.698Z,14.93
2019-04-21T04:15:22.802Z,15.30
2019-04-21T04:17:49.909Z,15.40
2019-04-21T04:20:30.349Z,15.77
2019-04-21T04:22:56.285Z,14.83
2019-04-21T04:25:27.432Z,15.13
2019-04-21T04:33:07.886Z,14.37
2019-04-21T04:35:52.335Z,13.70
2019-04-21T04:38:26.429Z,14.20
2019-04-21T04:41:14.487Z,14.83
2019-04-21T04:43:46.131Z,15.70
2019-04-21T04:46:34.987Z,14.67
2019-04-21T04:48:57.008Z,14.40
2019-04-21T04:51:30.644Z,14.20
2019-04-21T04:56:54.359Z,14.03
2019-04-21T05:04:08.093Z,14.10
2019-04-21T05:06:51.235Z,14.77
2019-04-21T05:14:19.523Z,15.27
2019-04-21T05:19:20.153Z,15.53
2019-04-21T05:22:12.175Z,15.07
2019-04-21T05:24:16.306Z,16.13
2019-04-21T05:26:48.014Z,16.00
2019-04-21T05:29:24.560Z,16.80
2019-04-21T05:32:24.404Z,16.07
2019-04-21T05:35:16.868Z,17.43
2019-04-21T05:38:10.591Z,15.00
2019-04-21T05:40:38.844Z,16.33
2019-04-21T05:43:25.618Z,16.73
2019-04-21T05:45:53.565Z,17.00
2019-04-21T05:50:59.157Z,15.40
2019-04-21T05:53:40.486Z,14.40
2019-04-21T05:56:12.552Z,14.40
2019-04-21T05:58:45.020Z,14.10
2019-04-21T06:01:30.155Z,13.70
2019-04-21T06:04:01.762Z,14.57
2019-04-21T06:06:34.083Z,13.40
2019-04-21T06:08:58.425Z,15.00
2019-04-21T06:11:30.584Z,15.20
2019-04-21T06:14:08.122Z,15.40
2019-04-21T06:16:51.551Z,15.20
2019-04-21T06:19:12.824Z,14.30
2019-04-21T06:21:47.857Z,14.60
2019-04-21T06:24:15.978Z,14.70
2019-04-21T06:29:34.813Z,14.57
2019-04-21T06:34:49.337Z,14.70
2019-04-21T06:37:36.059Z,13.80
2019-04-21T06:40:03.157Z,13.60
2019-04-21T06:42:14.736Z,13.83
2019-04-21T06:47:29.970Z,14.07
2019-04-21T06:49:55.594Z,12.80
2019-04-21T06:52:47.694Z,12.63
2019-04-21T06:55:20.538Z,13.67
2019-04-21T06:57:39.014Z,13.10
2019-04-21T07:00:15.191Z,13.27
2019-04-21T07:05:21.780Z,12.87
2019-04-21T07:08:13.090Z,13.47
2019-04-21T07:12:54.257Z,11.87
2019-04-21T07:15:30.455Z,11.50
2019-04-21T07:18:04.447Z,11.10
2019-04-21T07:20:36.599Z,12.20
2019-04-21T07:23:09.488Z,11.93
2019-04-21T07:25:45.547Z,10.60
2019-04-21T07:28:19.262Z,10.20
2019-04-21T07:30:51.558Z,9.93
2019-04-21T07:33:41.516Z,11.00
2019-04-21T07:35:59.542Z,10.90
2019-04-21T07:38:27.448Z,11.20
2019-04-21T07:40:58.716Z,11.20
2019-04-21T07:43:30.048Z,10.20
2019-04-21T07:46:04.258Z,10.90
2019-04-21T07:48:46.073Z,10.77
2019-04-21T07:51:45.959Z,9.40
2019-04-21T07:54:17.194Z,10.33
2019-04-21T07:56:32.994Z,10.23
2019-04-21T07:59:27.253Z,10.43
2019-04-21T08:01:55.002Z,9.97
2019-04-21T08:04:45.499Z,9.10
2019-04-21T08:06:58.145Z,10.30
2019-04-21T08:09:31.897Z,10.03
2019-04-21T08:12:04.161Z,10.00
2019-04-21T08:14:45.165Z,10.50
2019-04-21T08:17:09.817Z,11.00
2019-04-21T08:19:46.179Z,10.00
2019-04-21T08:22:30.745Z,10.83
2019-04-21T08:24:57.704Z,10.03
2019-04-21T08:27:32.397Z,9.17
2019-04-21T08:29:58.174Z,9.70
2019-04-21T08:32:46.173Z,9.30
2019-04-21T08:35:20.703Z,8.47
2019-04-21T08:37:37.672Z,8.83
2019-04-21T08:40:22.691Z,9.27
2019-04-21T08:42:46.593Z,9.60
2019-04-21T08:45:25.829Z,9.03
2019-04-21T08:47:52.128Z,7.90
2019-04-21T08:50:20.707Z,8.80
2019-04-21T08:53:07.930Z,8.50
2019-04-21T08:55:52.413Z,8.80
2019-04-21T08:58:31.044Z,8.50
2019-04-21T09:01:09.907Z,8.40
2019-04-21T09:03:56.034Z,8.10
2019-04-21T09:09:04.700Z,9.40
2019-04-21T09:11:34.583Z,8.57
2019-04-21T09:14:07.075Z,8.87
2019-04-21T09:16:41.219Z,8.60
2019-04-21T09:19:20.915Z,8.43
2019-04-21T09:21:52.900Z,8.47
2019-04-21T09:24:24.713Z,8.67
2019-04-21T09:26:51.389Z,7.93
2019-04-21T09:29:21.749Z,8.33
2019-04-21T09:31:46.102Z,7.83
2019-04-21T09:34:24.927Z,8.63
2019-04-21T09:36:58.717Z,7.67
2019-04-21T09:39:27.545Z,7.57
2019-04-21T09:42:00.650Z,7.73
2019-04-21T09:44:36.777Z,7.90
2019-04-21T09:47:06.790Z,7.37
2019-04-21T09:49:39.637Z,7.83
2019-04-21T09:52:16.991Z,7.77
2019-04-21T09:54:54.852Z,8.00
2019-04-21T09:57:30.034Z,6.80
2019-04-21T10:00:02.175Z,8.27
2019-04-21T10:02:34.863Z,7.70
2019-04-21T10:04:57.285Z,7.40
2019-04-21T10:07:34.949Z,7.10
2019-04-21T10:10:01.581Z,7.03
2019-04-21T10:12:33.367Z,6.80
2019-04-21T10:15:04.363Z,7.10
2019-04-21T10:17:39.583Z,6.73
2019-04-21T10:20:13.698Z,6.50
2019-04-21T10:22:45.097Z,7.40
2019-04-21T10:25:18.681Z,7.10
2019-04-21T10:27:52.765Z,6.70
2019-04-21T10:30:24.658Z,6.60
2019-04-21T10:32:56.591Z,6.47
2019-04-21T10:35:28.909Z,6.13
2019-04-21T10:38:13.116Z,6.23
2019-04-21T10:40:35.499Z,6.07
2019-04-21T10:43:09.965Z,5.50
2019-04-21T10:45:39.518Z,5.27
2019-04-21T10:48:10.990Z,5.70
2019-04-21T10:50:43.080Z,5.30
2019-04-21T10:53:21.141Z,5.30
2019-04-21T10:56:06.099Z,5.60
2019-04-21T10:58:34.121Z,5.40
2019-04-21T11:01:14.215Z,5.30
2019-04-21T11:04:09.635Z,4.90
2019-04-21T11:06:38.826Z,4.70
2019-04-21T11:09:13.936Z,4.90
2019-04-21T11:11:48.111Z,5.07
2019-04-21T11:14:19.191Z,5.33
2019-04-21T11:16:52.849Z,5.17
2019-04-21T11:19:24.304Z,4.63
2019-04-21T11:21:56.846Z,4.70
2019-04-21T11:24:31.439Z,5.17
2019-04-21T11:27:04.536Z,4.87
2019-04-21T11:29:37.197Z,4.47
2019-04-21T11:32:09.310Z,4.70
2019-04-21T11:34:41.045Z,4.43
2019-04-21T11:37:14.398Z,4.77
2019-04-21T11:39:56.669Z,4.73
2019-04-21T11:42:30.081Z,4.47
2019-04-21T11:45:01.241Z,4.73
2019-04-21T11:47:38.522Z,5.07
2019-04-21T11:50:10.911Z,4.53
2019-04-21T11:52:43.209Z,5.00
2019-04-21T11:55:16.502Z,5.00
2019-04-21T11:57:49.789Z,4.60
2019-04-21T12:00:21.536Z,4.30
2019-04-21T12:02:53.492Z,4.17
2019-04-21T12:05:25.544Z,4.87
2019-04-21T12:07:58.547Z,4.43
2019-04-21T12:10:31.498Z,4.60
2019-04-21T12:13:06.017Z,4.33
2019-04-21T12:15:37.123Z,3.87
2019-04-21T12:18:10.011Z,4.60
2019-04-21T12:20:41.327Z,4.60
2019-04-21T12:23:14.257Z,4.43
2019-04-21T12:25:49.397Z,4.17
2019-04-21T12:28:21.865Z,5.40
2019-04-21T12:30:55.824Z,4.57
2019-04-21T12:33:53.994Z,4.97
2019-04-21T12:36:25.681Z,4.60
2019-04-21T12:39:01.147Z,4.80
2019-04-21T12:41:30.855Z,3.93
2019-04-21T12:44:02.663Z,4.80
2019-04-21T12:46:34.297Z,4.50
2019-04-21T12:49:07.633Z,4.60
2019-04-21T12:51:39.781Z,4.57
2019-04-21T12:54:11.997Z,4.50
2019-04-21T12:56:43.343Z,3.87
2019-04-21T12:59:14.942Z,4.27
2019-04-21T13:01:47.099Z,4.60
2019-04-21T13:04:19.751Z,4.07
2019-04-21T13:06:51.817Z,4.47
2019-04-21T13:09:24.471Z,4.73
2019-04-21T13:11:57.221Z,4.20
2019-04-21T13:14:29.620Z,4.50
2019-04-21T13:17:01.401Z,4.53
2019-04-21T13:19:33.580Z,4.50
2019-04-21T13:22:05.837Z,4.30
2019-04-21T13:24:37.928Z,4.33
2019-04-21T13:27:10.915Z,4.30
2019-04-21T13:29:42.120Z,4.10
2019-04-21T13:32:14.354Z,4.23
2019-04-21T13:34:47.787Z,4.00
2019-04-21T13:37:19.479Z,3.90
2019-04-21T13:40:29.219Z,3.50
2019-04-21T13:42:47.782Z,4.20
2019-04-21T13:45:16.270Z,3.77
2019-04-21T13:47:48.509Z,3.67
2019-04-21T13:50:21.368Z,3.60
2019-04-21T13:52:54.484Z,3.80
2019-04-21T13:55:25.651Z,3.57
2019-04-21T13:57:58.839Z,3.57
2019-04-21T14:00:29.720Z,3.37
2019-04-21T14:03:00.948Z,3.30
2019-04-21T14:05:32.719Z,3.60
2019-04-21T14:08:05.070Z,4.07
2019-04-21T14:10:37.745Z,3.37
2019-04-21T14:13:09.612Z,3.83
2019-04-21T14:15:42.347Z,3.33
2019-04-21T14:18:15.007Z,3.57
2019-04-21T14:20:46.954Z,3.63
2019-04-21T14:23:28.613Z,3.40
2019-04-21T14:25:53.380Z,3.63
2019-04-21T14:28:24.568Z,3.70
2019-04-21T14:30:56.958Z,3.60
2019-04-21T14:33:29.789Z,3.63
2019-04-21T14:36:01.178Z,3.50
2019-04-21T14:38:32.557Z,3.93
2019-04-21T14:41:04.400Z,3.90
2019-04-21T14:43:36.181Z,3.73
2019-04-21T14:46:26.929Z,3.47
2019-04-21T14:49:17.389Z,3.40
2019-04-21T14:52:03.145Z,3.27
2019-04-21T14:55:00.529Z,3.80
2019-04-21T14:57:31.529Z,3.83
2019-04-21T15:00:03.090Z,3.40
2019-04-21T15:02:34.349Z,3.57
2019-04-21T15:05:05.650Z,3.53
2019-04-21T15:07:37.235Z,3.23
2019-04-21T15:10:16.323Z,3.73
2019-04-21T15:12:43.589Z,3.97
2019-04-21T15:15:15.987Z,3.70
2019-04-21T15:17:46.874Z,4.03
2019-04-21T15:20:19.783Z,3.40
2019-04-21T15:22:52.515Z,3.90
2019-04-21T15:25:23.827Z,3.90
2019-04-21T15:27:56.908Z,3.80
2019-04-21T15:30:28.852Z,3.50
2019-04-21T15:33:00.678Z,3.83
2019-04-21T15:35:33.014Z,3.57
2019-04-21T15:38:04.168Z,4.20
2019-04-21T15:40:41.826Z,3.70
2019-04-21T15:43:08.526Z,3.93
2019-04-21T15:45:42.486Z,3.97
2019-04-21T15:48:14.183Z,3.83
2019-04-21T15:50:45.986Z,3.80
2019-04-21T15:53:19.351Z,3.70
2019-04-21T15:55:56.993Z,3.87
2019-04-21T15:58:46.374Z,3.77
2019-04-21T16:01:28.093Z,4.23
2019-04-21T16:04:00.570Z,3.90
2019-04-21T16:06:32.051Z,3.63
2019-04-21T16:09:04.807Z,3.80
2019-04-21T16:11:37.862Z,4.40
2019-04-21T16:14:10.145Z,4.10
2019-04-21T16:16:43.283Z,4.30
2019-04-21T16:19:16.416Z,4.40
2019-04-21T16:21:48.687Z,3.90
2019-04-21T16:24:21.259Z,4.13
2019-04-21T16:26:53.060Z,3.97
2019-04-21T16:29:25.023Z,3.60
2019-04-21T16:31:57.339Z,4.10
2019-04-21T16:34:37.898Z,4.20
2019-04-21T16:37:01.938Z,4.13
2019-04-21T16:39:33.784Z,4.63
2019-04-21T16:42:08.312Z,4.47
2019-04-21T16:44:39.292Z,4.23
2019-04-21T16:47:11.793Z,4.07
2019-04-21T16:49:45.207Z,4.30
2019-04-21T16:52:20.382Z,4.53
2019-04-21T16:54:58.293Z,4.20
2019-04-21T16:57:37.703Z,4.00
2019-04-21T17:00:27.031Z,4.27
2019-04-21T17:02:48.450Z,4.10
2019-04-21T17:05:20.415Z,3.93
2019-04-21T17:07:52.922Z,4.27
2019-04-21T17:10:24.653Z,4.03
2019-04-21T17:12:56.105Z,4.00
2019-04-21T17:15:46.358Z,3.87
2019-04-21T17:18:13.693Z,4.97
2019-04-21T17:20:42.045Z,3.57
2019-04-21T17:23:07.205Z,4.57
2019-04-21T17:25:39.292Z,3.77
2019-04-21T17:28:12.082Z,4.13
2019-04-21T17:30:44.369Z,4.00
2019-04-21T17:33:21.190Z,4.20
2019-04-21T17:35:49.142Z,4.20
2019-04-21T17:38:21.853Z,3.70
2019-04-21T17:40:53.840Z,4.20
2019-04-21T17:43:25.806Z,4.00
2019-04-21T17:45:57.550Z,4.10
2019-04-21T17:48:29.340Z,4.07
2019-04-21T17:51:14.930Z,3.80
2019-04-21T17:54:17.555Z,3.80
2019-04-21T17:57:04.399Z,3.57
2019-04-21T17:59:45.721Z,4.10
2019-04-21T18:02:05.137Z,3.70
2019-04-21T18:04:42.963Z,3.90
2019-04-21T18:07:26.291Z,4.13
2019-04-21T18:12:33.168Z,3.90
2019-04-21T18:15:00.278Z,3.87
2019-04-21T18:17:24.743Z,3.70
2019-04-21T18:19:57.348Z,3.83
2019-04-21T18:22:52.999Z,3.67
2019-04-21T18:25:40.318Z,3.92
2019-04-21T18:28:00.718Z,3.97
2019-04-21T18:31:04.796Z,4.03
2019-04-21T18:33:42.221Z,3.87
2019-04-21T18:36:34.903Z,3.87
2019-04-21T18:39:46.132Z,3.90
2019-04-21T18:42:34.127Z,3.70
2019-04-21T18:48:04.957Z,4.53
2019-04-21T18:50:48.990Z,4.40
2019-04-21T18:53:52.700Z,4.20
2019-04-21T18:56:16.464Z,4.40
2019-04-21T18:58:44.588Z,4.70
2019-04-21T19:01:22.699Z,4.07
2019-04-21T19:03:53.927Z,4.00
2019-04-21T19:06:43.782Z,4.28
2019-04-21T19:09:14.981Z,3.97
2019-04-21T19:11:51.897Z,4.23
2019-04-21T19:14:32.193Z,4.33
2019-04-21T19:17:27.583Z,4.40
2019-04-21T19:19:47.382Z,4.57
2019-04-21T19:22:09.158Z,4.60
2019-04-21T19:24:48.567Z,4.40
2019-04-21T19:29:58.331Z,5.20
2019-04-21T19:32:25.308Z,4.90
2019-04-21T19:34:43.858Z,4.80
2019-04-21T19:37:18.935Z,5.10
2019-04-21T19:40:00.390Z,5.00
2019-04-21T19:42:32.227Z,5.20
2019-04-21T19:45:11.857Z,5.03
2019-04-21T19:47:48.765Z,5.40
2019-04-21T19:50:26.043Z,5.20
2019-04-21T19:52:46.735Z,5.00
2019-04-21T19:55:09.696Z,5.10
2019-04-21T19:57:41.376Z,5.23
2019-04-21T20:00:17.144Z,4.70
2019-04-21T20:02:50.306Z,5.20
2019-04-21T20:05:31.646Z,5.57
2019-04-21T20:08:11.368Z,5.27
2019-04-21T20:10:48.437Z,5.10
2019-04-21T20:13:35.136Z,6.10
2019-04-21T20:15:56.695Z,5.60
2019-04-21T20:18:21.047Z,5.60
2019-04-21T20:20:45.887Z,6.30
2019-04-21T20:23:22.743Z,5.60
2019-04-21T20:25:56.928Z,5.70
2019-04-21T20:28:38.060Z,5.90
2019-04-21T20:31:23.905Z,6.10
2019-04-21T20:33:52.541Z,6.40
2019-04-21T20:36:43.097Z,5.90
2019-04-21T20:38:48.625Z,6.20
2019-04-21T20:41:32.457Z,5.97
2019-04-21T20:44:08.586Z,6.20
2019-04-21T20:46:36.592Z,6.20
2019-04-21T20:49:05.636Z,6.33
2019-04-21T20:51:41.988Z,6.17
2019-04-21T20:54:20.786Z,6.13
2019-04-21T20:56:49.023Z,6.00
2019-04-21T20:59:19.760Z,6.17
2019-04-21T21:02:00.394Z,6.60
2019-04-21T21:04:25.474Z,5.90
2019-04-21T21:07:06.559Z,6.50
2019-04-21T21:09:41.347Z,6.20
2019-04-21T21:12:22.264Z,6.07
2019-04-21T21:14:42.186Z,5.97
2019-04-21T21:17:36.105Z,6.10
2019-04-21T21:20:05.486Z,6.23
2019-04-21T21:22:24.993Z,6.10
2019-04-21T21:25:03.911Z,7.50
2019-04-21T21:27:31.890Z,7.20
2019-04-21T21:30:09.654Z,6.33
2019-04-21T21:32:42.782Z,6.20
2019-04-21T21:35:12.981Z,6.30
2019-04-21T21:37:55.243Z,5.90
2019-04-21T21:40:28.706Z,5.90
2019-04-21T21:42:44.305Z,6.50
2019-04-21T21:45:18.344Z,7.67
2019-04-21T21:48:05.649Z,6.00
2019-04-21T21:50:29.829Z,6.63
2019-04-21T21:53:05.841Z,6.73
2019-04-21T21:55:27.765Z,6.47
2019-04-21T21:58:03.549Z,6.77
2019-04-21T22:00:38.003Z,5.53
2019-04-21T22:03:14.970Z,6.27
2019-04-21T22:05:45.588Z,6.07
2019-04-21T22:08:14.376Z,5.60
2019-04-21T22:10:47.360Z,6.47
2019-04-21T22:13:21.890Z,6.30
2019-04-21T22:15:56.592Z,6.17
2019-04-21T22:18:43.158Z,7.20
2019-04-21T22:21:12.849Z,6.60
2019-04-21T22:23:43.741Z,6.70
2019-04-21T22:26:07.342Z,6.20
2019-04-21T22:28:40.005Z,6.87
2019-04-21T22:31:16.387Z,6.77
2019-04-21T22:33:49.422Z,6.80
2019-04-21T22:36:33.139Z,7.70
2019-04-21T22:39:08.946Z,7.20
2019-04-21T22:41:33.751Z,7.17
2019-04-21T22:43:59.385Z,7.30
2019-04-21T22:46:32.705Z,7.23
2019-04-21T22:49:08.969Z,6.47
2019-04-21T22:51:43.079Z,7.80
2019-04-21T22:54:12.818Z,7.00
2019-04-21T22:56:51.977Z,7.17
2019-04-21T22:59:21.057Z,7.57
2019-04-21T23:01:53.891Z,7.60
2019-04-21T23:04:38.080Z,6.97
2019-04-21T23:07:05.108Z,7.10
2019-04-21T23:09:33.069Z,8.93
2019-04-21T23:12:05.063Z,7.40
2019-04-21T23:14:45.318Z,8.13
2019-04-21T23:17:28.149Z,6.83
2019-04-21T23:20:05.668Z,7.13
2019-04-21T23:22:32.362Z,6.93
2019-04-21T23:25:09.026Z,6.90
2019-04-21T23:27:35.279Z,6.27
2019-04-21T23:30:19.796Z,6.73
2019-04-21T23:32:35.988Z,6.50
2019-04-21T23:35:09.263Z,6.47
2019-04-21T23:37:41.655Z,6.80
2019-04-21T23:40:12.683Z,6.83
2019-04-21T23:42:42.413Z,6.77
2019-04-21T23:45:17.719Z,6.80
2019-04-21T23:48:01.647Z,6.70
2019-04-21T23:50:32.931Z,6.97
2019-04-21T23:52:55.429Z,6.77
2019-04-21T23:55:27.314Z,6.60
2019-04-21T23:58:07.017Z,6.90
